sensor_id;sensor_type;location;lat;lon;timestamp;temperature;humidity
74416;SHT31;62850;42.428;25.618;2023-02-01T00:00:00;2.62;76.12
74416;SHT31;62850;42.428;25.618;2023-02-01T00:02:26;2.71;77.41
74416;SHT31;62850;42.428;25.618;2023-02-01T00:04:51;2.62;76.08
74416;SHT31;62850;42.428;25.618;2023-02-01T00:07:17;2.62;77.93
74416;SHT31;62850;42.428;25.618;2023-02-01T00:09:42;2.65;77.77
74416;SHT31;62850;42.428;25.618;2023-02-01T00:12:08;2.65;76.82
74416;SHT31;62850;42.428;25.618;2023-02-01T00:14:33;2.59;76.11
74416;SHT31;62850;42.428;25.618;2023-02-01T00:17:05;2.65;77.26
74416;SHT31;62850;42.428;25.618;2023-02-01T00:19:31;2.60;77.43
74416;SHT31;62850;42.428;25.618;2023-02-01T00:21:57;2.60;77.18
74416;SHT31;62850;42.428;25.618;2023-02-01T00:24:23;2.59;78.07
74416;SHT31;62850;42.428;25.618;2023-02-01T00:26:48;2.53;75.45
74416;SHT31;62850;42.428;25.618;2023-02-01T00:29:19;2.62;76.82
74416;SHT31;62850;42.428;25.618;2023-02-01T00:31:45;2.63;77.27
74416;SHT31;62850;42.428;25.618;2023-02-01T00:34:16;2.72;75.45
74416;SHT31;62850;42.428;25.618;2023-02-01T00:36:42;2.69;75.21
74416;SHT31;62850;42.428;25.618;2023-02-01T00:39:09;2.82;74.88
74416;SHT31;62850;42.428;25.618;2023-02-01T00:41:35;2.89;75.70
74416;SHT31;62850;42.428;25.618;2023-02-01T00:44:01;2.94;75.44
74416;SHT31;62850;42.428;25.618;2023-02-01T00:46:27;2.97;76.50
74416;SHT31;62850;42.428;25.618;2023-02-01T00:48:53;3.05;77.04
74416;SHT31;62850;42.428;25.618;2023-02-01T00:51:22;3.01;77.97
74416;SHT31;62850;42.428;25.618;2023-02-01T00:53:48;3.01;77.92
74416;SHT31;62850;42.428;25.618;2023-02-01T00:56:14;2.94;77.90
74416;SHT31;62850;42.428;25.618;2023-02-01T00:58:39;2.89;78.29
74416;SHT31;62850;42.428;25.618;2023-02-01T01:01:08;2.93;77.97
74416;SHT31;62850;42.428;25.618;2023-02-01T01:03:37;2.84;78.51
74416;SHT31;62850;42.428;25.618;2023-02-01T01:06:06;2.77;78.48
74416;SHT31;62850;42.428;25.618;2023-02-01T01:08:32;2.71;78.68
74416;SHT31;62850;42.428;25.618;2023-02-01T01:10:58;2.69;78.49
74416;SHT31;62850;42.428;25.618;2023-02-01T01:13:24;2.65;78.41
74416;SHT31;62850;42.428;25.618;2023-02-01T01:15:49;2.59;76.17
74416;SHT31;62850;42.428;25.618;2023-02-01T01:18:15;2.56;76.56
74416;SHT31;62850;42.428;25.618;2023-02-01T01:20:41;2.52;77.69
74416;SHT31;62850;42.428;25.618;2023-02-01T01:23:08;2.55;77.84
74416;SHT31;62850;42.428;25.618;2023-02-01T01:25:40;2.48;77.55
74416;SHT31;62850;42.428;25.618;2023-02-01T01:28:06;2.46;78.80
74416;SHT31;62850;42.428;25.618;2023-02-01T01:30:35;2.55;78.33
74416;SHT31;62850;42.428;25.618;2023-02-01T01:33:02;2.48;78.41
74416;SHT31;62850;42.428;25.618;2023-02-01T01:35:32;2.42;76.15
74416;SHT31;62850;42.428;25.618;2023-02-01T01:37:59;2.50;74.27
74416;SHT31;62850;42.428;25.618;2023-02-01T01:40:25;2.52;76.27
74416;SHT31;62850;42.428;25.618;2023-02-01T01:42:51;2.44;77.10
74416;SHT31;62850;42.428;25.618;2023-02-01T01:45:34;2.31;78.24
74416;SHT31;62850;42.428;25.618;2023-02-01T01:48:25;2.21;78.10
74416;SHT31;62850;42.428;25.618;2023-02-01T01:50:56;2.22;79.22
74416;SHT31;62850;42.428;25.618;2023-02-01T01:53:27;2.24;78.95
74416;SHT31;62850;42.428;25.618;2023-02-01T01:55:54;2.21;77.63
74416;SHT31;62850;42.428;25.618;2023-02-01T01:58:24;2.26;77.40
74416;SHT31;62850;42.428;25.618;2023-02-01T02:00:51;2.24;77.70
74416;SHT31;62850;42.428;25.618;2023-02-01T02:03:21;2.32;78.05
74416;SHT31;62850;42.428;25.618;2023-02-01T02:05:49;2.35;78.18
74416;SHT31;62850;42.428;25.618;2023-02-01T02:08:17;2.26;78.48
74416;SHT31;62850;42.428;25.618;2023-02-01T02:10:47;2.17;79.01
74416;SHT31;62850;42.428;25.618;2023-02-01T02:13:32;2.21;79.09
74416;SHT31;62850;42.428;25.618;2023-02-01T02:38:30;1.78;79.64
74416;SHT31;62850;42.428;25.618;2023-02-01T02:43:35;1.90;77.05
74416;SHT31;62850;42.428;25.618;2023-02-01T02:46:25;2.01;76.61
74416;SHT31;62850;42.428;25.618;2023-02-01T02:49:25;2.13;77.89
74416;SHT31;62850;42.428;25.618;2023-02-01T02:52:13;2.11;77.96
74416;SHT31;62850;42.428;25.618;2023-02-01T02:55:00;2.07;78.55
74416;SHT31;62850;42.428;25.618;2023-02-01T02:57:28;2.03;78.67
74416;SHT31;62850;42.428;25.618;2023-02-01T03:00:22;1.90;78.86
74416;SHT31;62850;42.428;25.618;2023-02-01T03:03:07;2.00;76.33
74416;SHT31;62850;42.428;25.618;2023-02-01T03:05:51;2.11;76.73
74416;SHT31;62850;42.428;25.618;2023-02-01T03:08:20;2.14;75.49
74416;SHT31;62850;42.428;25.618;2023-02-01T03:11:06;2.17;76.30
74416;SHT31;62850;42.428;25.618;2023-02-01T03:13:49;2.22;75.24
74416;SHT31;62850;42.428;25.618;2023-02-01T03:16:39;2.17;76.22
74416;SHT31;62850;42.428;25.618;2023-02-01T03:19:17;2.13;75.92
74416;SHT31;62850;42.428;25.618;2023-02-01T03:21:52;2.05;75.79
74416;SHT31;62850;42.428;25.618;2023-02-01T03:24:39;2.03;75.35
74416;SHT31;62850;42.428;25.618;2023-02-01T03:29:57;1.94;74.49
74416;SHT31;62850;42.428;25.618;2023-02-01T03:32:24;2.08;73.39
74416;SHT31;62850;42.428;25.618;2023-02-01T03:34:50;2.11;72.94
74416;SHT31;62850;42.428;25.618;2023-02-01T03:37:23;2.17;72.98
74416;SHT31;62850;42.428;25.618;2023-02-01T03:40:07;2.29;72.19
74416;SHT31;62850;42.428;25.618;2023-02-01T03:42:43;2.34;72.16
74416;SHT31;62850;42.428;25.618;2023-02-01T03:47:46;2.38;72.23
74416;SHT31;62850;42.428;25.618;2023-02-01T03:50:18;2.31;72.20
74416;SHT31;62850;42.428;25.618;2023-02-01T03:53:06;2.17;72.52
74416;SHT31;62850;42.428;25.618;2023-02-01T03:55:33;2.07;73.03
74416;SHT31;62850;42.428;25.618;2023-02-01T03:58:09;2.05;73.23
74416;SHT31;62850;42.428;25.618;2023-02-01T04:00:36;2.08;73.09
74416;SHT31;62850;42.428;25.618;2023-02-01T04:03:04;2.01;73.34
74416;SHT31;62850;42.428;25.618;2023-02-01T04:05:30;1.95;73.42
74416;SHT31;62850;42.428;25.618;2023-02-01T04:07:56;2.01;73.18
74416;SHT31;62850;42.428;25.618;2023-02-01T04:10:21;2.11;73.17
74416;SHT31;62850;42.428;25.618;2023-02-01T04:12:47;2.10;73.47
74416;SHT31;62850;42.428;25.618;2023-02-01T04:15:12;2.15;73.21
74416;SHT31;62850;42.428;25.618;2023-02-01T04:17:38;2.21;73.28
74416;SHT31;62850;42.428;25.618;2023-02-01T04:20:04;2.11;75.08
74416;SHT31;62850;42.428;25.618;2023-02-01T04:22:30;1.97;75.66
74416;SHT31;62850;42.428;25.618;2023-02-01T04:24:55;1.98;75.73
74416;SHT31;62850;42.428;25.618;2023-02-01T04:27:21;2.10;75.68
74416;SHT31;62850;42.428;25.618;2023-02-01T04:29:47;2.10;76.12
74416;SHT31;62850;42.428;25.618;2023-02-01T04:32:15;2.08;76.29
74416;SHT31;62850;42.428;25.618;2023-02-01T04:34:41;2.05;75.34
74416;SHT31;62850;42.428;25.618;2023-02-01T04:37:07;2.18;74.89
74416;SHT31;62850;42.428;25.618;2023-02-01T04:39:33;2.22;74.62
74416;SHT31;62850;42.428;25.618;2023-02-01T04:41:58;2.13;73.73
74416;SHT31;62850;42.428;25.618;2023-02-01T04:44:24;2.18;71.85
74416;SHT31;62850;42.428;25.618;2023-02-01T04:46:49;2.21;72.72
74416;SHT31;62850;42.428;25.618;2023-02-01T04:49:15;2.15;74.18
74416;SHT31;62850;42.428;25.618;2023-02-01T04:51:41;2.10;73.70
74416;SHT31;62850;42.428;25.618;2023-02-01T04:54:07;2.17;74.10
74416;SHT31;62850;42.428;25.618;2023-02-01T04:56:33;2.18;73.89
74416;SHT31;62850;42.428;25.618;2023-02-01T04:59:00;2.11;69.09
74416;SHT31;62850;42.428;25.618;2023-02-01T05:01:28;1.93;73.44
74416;SHT31;62850;42.428;25.618;2023-02-01T05:03:53;2.13;65.20
74416;SHT31;62850;42.428;25.618;2023-02-01T05:06:19;2.25;66.27
74416;SHT31;62850;42.428;25.618;2023-02-01T05:08:45;2.31;67.49
74416;SHT31;62850;42.428;25.618;2023-02-01T05:11:10;2.35;64.45
74416;SHT31;62850;42.428;25.618;2023-02-01T05:13:56;2.45;65.00
74416;SHT31;62850;42.428;25.618;2023-02-01T05:16:22;2.48;64.45
74416;SHT31;62850;42.428;25.618;2023-02-01T05:18:47;2.38;64.49
74416;SHT31;62850;42.428;25.618;2023-02-01T05:21:13;2.36;64.43
74416;SHT31;62850;42.428;25.618;2023-02-01T05:23:38;2.52;63.02
74416;SHT31;62850;42.428;25.618;2023-02-01T05:26:23;2.60;62.86
74416;SHT31;62850;42.428;25.618;2023-02-01T05:28:49;2.65;62.10
74416;SHT31;62850;42.428;25.618;2023-02-01T05:31:14;2.69;62.74
74416;SHT31;62850;42.428;25.618;2023-02-01T05:33:39;2.69;62.69
74416;SHT31;62850;42.428;25.618;2023-02-01T05:36:05;2.69;62.67
74416;SHT31;62850;42.428;25.618;2023-02-01T05:38:31;2.62;63.52
74416;SHT31;62850;42.428;25.618;2023-02-01T05:40:57;2.63;63.45
74416;SHT31;62850;42.428;25.618;2023-02-01T05:43:22;2.76;62.59
74416;SHT31;62850;42.428;25.618;2023-02-01T05:45:48;2.69;63.43
74416;SHT31;62850;42.428;25.618;2023-02-01T05:48:13;2.66;63.42
74416;SHT31;62850;42.428;25.618;2023-02-01T05:50:39;2.63;62.92
74416;SHT31;62850;42.428;25.618;2023-02-01T05:53:05;2.69;61.94
74416;SHT31;62850;42.428;25.618;2023-02-01T05:55:30;2.80;62.05
74416;SHT31;62850;42.428;25.618;2023-02-01T05:57:56;2.84;62.35
74416;SHT31;62850;42.428;25.618;2023-02-01T06:00:22;2.87;63.36
74416;SHT31;62850;42.428;25.618;2023-02-01T06:02:48;2.93;61.85
74416;SHT31;62850;42.428;25.618;2023-02-01T06:05:13;3.00;61.58
74416;SHT31;62850;42.428;25.618;2023-02-01T06:07:39;3.01;61.60
74416;SHT31;62850;42.428;25.618;2023-02-01T06:10:04;2.97;61.59
74416;SHT31;62850;42.428;25.618;2023-02-01T06:12:30;3.01;62.15
74416;SHT31;62850;42.428;25.618;2023-02-01T06:14:56;3.00;62.71
74416;SHT31;62850;42.428;25.618;2023-02-01T06:17:21;3.07;61.49
74416;SHT31;62850;42.428;25.618;2023-02-01T06:19:47;3.05;61.28
74416;SHT31;62850;42.428;25.618;2023-02-01T06:22:14;3.03;61.62
74416;SHT31;62850;42.428;25.618;2023-02-01T06:24:39;2.94;61.51
74416;SHT31;62850;42.428;25.618;2023-02-01T06:27:06;2.93;62.43
74416;SHT31;62850;42.428;25.618;2023-02-01T06:29:32;2.90;60.06
74416;SHT31;62850;42.428;25.618;2023-02-01T06:31:58;2.90;61.34
74416;SHT31;62850;42.428;25.618;2023-02-01T06:34:24;2.97;61.29
74416;SHT31;62850;42.428;25.618;2023-02-01T06:36:50;2.90;61.38
74416;SHT31;62850;42.428;25.618;2023-02-01T06:39:15;2.92;61.04
74416;SHT31;62850;42.428;25.618;2023-02-01T06:41:42;2.92;60.91
74416;SHT31;62850;42.428;25.618;2023-02-01T06:44:08;2.93;60.55
74416;SHT31;62850;42.428;25.618;2023-02-01T06:46:34;2.97;61.09
74416;SHT31;62850;42.428;25.618;2023-02-01T06:48:59;3.03;61.41
74416;SHT31;62850;42.428;25.618;2023-02-01T06:51:26;3.18;62.20
74416;SHT31;62850;42.428;25.618;2023-02-01T06:53:53;3.23;61.20
74416;SHT31;62850;42.428;25.618;2023-02-01T06:56:19;3.24;60.19
74416;SHT31;62850;42.428;25.618;2023-02-01T06:58:45;3.27;59.88
74416;SHT31;62850;42.428;25.618;2023-02-01T07:01:11;3.28;60.51
74416;SHT31;62850;42.428;25.618;2023-02-01T07:03:38;3.38;61.48
74416;SHT31;62850;42.428;25.618;2023-02-01T07:06:04;3.48;60.82
74416;SHT31;62850;42.428;25.618;2023-02-01T07:08:34;3.59;61.21
74416;SHT31;62850;42.428;25.618;2023-02-01T07:11:08;3.62;60.93
74416;SHT31;62850;42.428;25.618;2023-02-01T07:13:35;3.75;60.25
74416;SHT31;62850;42.428;25.618;2023-02-01T07:16:02;3.87;58.69
74416;SHT31;62850;42.428;25.618;2023-02-01T07:18:29;3.96;58.94
74416;SHT31;62850;42.428;25.618;2023-02-01T07:20:55;4.00;57.96
74416;SHT31;62850;42.428;25.618;2023-02-01T07:23:21;4.10;57.73
74416;SHT31;62850;42.428;25.618;2023-02-01T07:25:47;4.16;58.35
74416;SHT31;62850;42.428;25.618;2023-02-01T07:28:13;4.24;58.55
74416;SHT31;62850;42.428;25.618;2023-02-01T07:30:38;4.27;57.65
74416;SHT31;62850;42.428;25.618;2023-02-01T07:33:04;4.37;57.84
74416;SHT31;62850;42.428;25.618;2023-02-01T07:35:30;4.51;57.19
74416;SHT31;62850;42.428;25.618;2023-02-01T07:37:57;4.61;56.57
74416;SHT31;62850;42.428;25.618;2023-02-01T07:40:23;4.65;56.61
74416;SHT31;62850;42.428;25.618;2023-02-01T07:42:54;4.78;55.77
74416;SHT31;62850;42.428;25.618;2023-02-01T07:45:27;4.89;55.47
74416;SHT31;62850;42.428;25.618;2023-02-01T07:47:53;4.96;55.81
74416;SHT31;62850;42.428;25.618;2023-02-01T07:50:19;4.99;55.17
74416;SHT31;62850;42.428;25.618;2023-02-01T07:52:44;4.97;55.90
74416;SHT31;62850;42.428;25.618;2023-02-01T07:55:10;4.95;55.18
74416;SHT31;62850;42.428;25.618;2023-02-01T07:57:35;4.95;55.38
74416;SHT31;62850;42.428;25.618;2023-02-01T08:00:01;4.85;55.78
74416;SHT31;62850;42.428;25.618;2023-02-01T08:02:45;4.92;56.66
74416;SHT31;62850;42.428;25.618;2023-02-01T08:05:11;4.92;57.11
74416;SHT31;62850;42.428;25.618;2023-02-01T08:07:36;4.92;57.51
74416;SHT31;62850;42.428;25.618;2023-02-01T08:10:02;4.99;57.56
74416;SHT31;62850;42.428;25.618;2023-02-01T08:12:30;5.06;57.89
74416;SHT31;62850;42.428;25.618;2023-02-01T08:14:56;4.99;58.10
74416;SHT31;62850;42.428;25.618;2023-02-01T08:17:21;4.88;58.57
74416;SHT31;62850;42.428;25.618;2023-02-01T08:19:47;4.96;59.33
74416;SHT31;62850;42.428;25.618;2023-02-01T08:22:12;5.03;58.84
74416;SHT31;62850;42.428;25.618;2023-02-01T08:24:38;5.09;58.91
74416;SHT31;62850;42.428;25.618;2023-02-01T08:27:05;5.15;58.09
74416;SHT31;62850;42.428;25.618;2023-02-01T08:29:31;5.15;58.63
74416;SHT31;62850;42.428;25.618;2023-02-01T08:31:56;5.20;58.77
74416;SHT31;62850;42.428;25.618;2023-02-01T08:34:22;5.05;58.28
74416;SHT31;62850;42.428;25.618;2023-02-01T08:36:48;4.92;58.49
74416;SHT31;62850;42.428;25.618;2023-02-01T08:39:13;4.85;58.25
74416;SHT31;62850;42.428;25.618;2023-02-01T08:41:39;4.83;58.43
74416;SHT31;62850;42.428;25.618;2023-02-01T08:44:05;4.86;57.25
74416;SHT31;62850;42.428;25.618;2023-02-01T08:46:30;4.82;56.72
74416;SHT31;62850;42.428;25.618;2023-02-01T08:48:56;4.89;56.34
74416;SHT31;62850;42.428;25.618;2023-02-01T08:51:23;4.95;56.42
74416;SHT31;62850;42.428;25.618;2023-02-01T08:53:49;4.99;55.52
74416;SHT31;62850;42.428;25.618;2023-02-01T08:56:16;5.02;56.19
74416;SHT31;62850;42.428;25.618;2023-02-01T08:58:42;4.99;56.50
74416;SHT31;62850;42.428;25.618;2023-02-01T09:01:12;5.02;56.18
74416;SHT31;62850;42.428;25.618;2023-02-01T09:03:38;4.92;56.93
74416;SHT31;62850;42.428;25.618;2023-02-01T09:06:07;4.97;57.19
74416;SHT31;62850;42.428;25.618;2023-02-01T09:08:33;5.02;57.39
74416;SHT31;62850;42.428;25.618;2023-02-01T09:11:01;4.99;57.79
74416;SHT31;62850;42.428;25.618;2023-02-01T09:13:27;4.95;57.41
74416;SHT31;62850;42.428;25.618;2023-02-01T09:15:53;4.97;58.25
74416;SHT31;62850;42.428;25.618;2023-02-01T09:18:19;5.05;57.84
74416;SHT31;62850;42.428;25.618;2023-02-01T09:20:44;4.99;58.13
74416;SHT31;62850;42.428;25.618;2023-02-01T09:23:10;5.00;58.08
74416;SHT31;62850;42.428;25.618;2023-02-01T09:25:37;5.02;57.83
74416;SHT31;62850;42.428;25.618;2023-02-01T09:28:03;5.00;58.16
74416;SHT31;62850;42.428;25.618;2023-02-01T09:30:31;4.97;58.33
74416;SHT31;62850;42.428;25.618;2023-02-01T09:32:57;4.99;58.58
74416;SHT31;62850;42.428;25.618;2023-02-01T09:35:22;4.97;58.38
74416;SHT31;62850;42.428;25.618;2023-02-01T09:37:48;5.05;58.28
74416;SHT31;62850;42.428;25.618;2023-02-01T09:40:17;5.15;58.85
74416;SHT31;62850;42.428;25.618;2023-02-01T09:43:10;5.18;58.45
74416;SHT31;62850;42.428;25.618;2023-02-01T09:48:35;5.29;59.76
74416;SHT31;62850;42.428;25.618;2023-02-01T09:51:06;5.36;58.64
74416;SHT31;62850;42.428;25.618;2023-02-01T09:53:40;5.36;59.27
74416;SHT31;62850;42.428;25.618;2023-02-01T09:56:14;5.39;59.37
74416;SHT31;62850;42.428;25.618;2023-02-01T10:01:20;5.60;59.22
74416;SHT31;62850;42.428;25.618;2023-02-01T10:03:48;5.62;59.08
74416;SHT31;62850;42.428;25.618;2023-02-01T10:06:26;5.67;59.92
74416;SHT31;62850;42.428;25.618;2023-02-01T10:09:21;5.67;59.68
74416;SHT31;62850;42.428;25.618;2023-02-01T10:14:57;5.57;60.16
74416;SHT31;62850;42.428;25.618;2023-02-01T10:20:43;5.55;59.71
74416;SHT31;62850;42.428;25.618;2023-02-01T10:28:37;5.81;59.99
74416;SHT31;62850;42.428;25.618;2023-02-01T10:31:05;5.95;58.72
74416;SHT31;62850;42.428;25.618;2023-02-01T10:33:41;6.05;59.01
74416;SHT31;62850;42.428;25.618;2023-02-01T10:36:16;6.06;58.91
74416;SHT31;62850;42.428;25.618;2023-02-01T10:38:44;6.11;59.77
74416;SHT31;62850;42.428;25.618;2023-02-01T10:41:19;6.23;59.71
74416;SHT31;62850;42.428;25.618;2023-02-01T10:43:48;6.46;58.68
74416;SHT31;62850;42.428;25.618;2023-02-01T10:46:16;6.56;57.59
74416;SHT31;62850;42.428;25.618;2023-02-01T10:48:42;6.73;58.18
74416;SHT31;62850;42.428;25.618;2023-02-01T10:51:42;6.92;56.96
74416;SHT31;62850;42.428;25.618;2023-02-01T10:54:19;6.94;57.44
74416;SHT31;62850;42.428;25.618;2023-02-01T10:56:46;6.97;56.30
74416;SHT31;62850;42.428;25.618;2023-02-01T10:59:21;7.05;56.58
74416;SHT31;62850;42.428;25.618;2023-02-01T11:01:50;7.00;57.20
74416;SHT31;62850;42.428;25.618;2023-02-01T11:04:24;7.12;57.77
74416;SHT31;62850;42.428;25.618;2023-02-01T11:06:53;7.22;56.86
74416;SHT31;62850;42.428;25.618;2023-02-01T11:09:30;7.31;57.27
74416;SHT31;62850;42.428;25.618;2023-02-01T11:11:59;7.48;56.91
74416;SHT31;62850;42.428;25.618;2023-02-01T11:16:55;7.28;55.61
74416;SHT31;62850;42.428;25.618;2023-02-01T11:19:22;7.11;56.00
74416;SHT31;62850;42.428;25.618;2023-02-01T11:21:53;7.07;55.87
74416;SHT31;62850;42.428;25.618;2023-02-01T11:24:31;7.00;55.74
74416;SHT31;62850;42.428;25.618;2023-02-01T11:27:01;7.02;56.32
74416;SHT31;62850;42.428;25.618;2023-02-01T11:29:41;6.88;55.22
74416;SHT31;62850;42.428;25.618;2023-02-01T11:32:09;7.00;56.67
74416;SHT31;62850;42.428;25.618;2023-02-01T11:34:42;7.05;56.53
74416;SHT31;62850;42.428;25.618;2023-02-01T11:40:03;7.23;56.19
74416;SHT31;62850;42.428;25.618;2023-02-01T11:42:30;7.26;55.97
74416;SHT31;62850;42.428;25.618;2023-02-01T11:47:40;7.36;55.62
74416;SHT31;62850;42.428;25.618;2023-02-01T11:50:15;7.48;55.56
74416;SHT31;62850;42.428;25.618;2023-02-01T12:31:46;7.94;51.51
74416;SHT31;62850;42.428;25.618;2023-02-01T12:34:36;7.87;51.51
74416;SHT31;62850;42.428;25.618;2023-02-01T12:42:36;8.07;52.42
74416;SHT31;62850;42.428;25.618;2023-02-01T12:56:16;8.15;51.22
74416;SHT31;62850;42.428;25.618;2023-02-01T12:58:53;8.17;51.32
74416;SHT31;62850;42.428;25.618;2023-02-01T13:01:26;8.22;50.91
74416;SHT31;62850;42.428;25.618;2023-02-01T13:03:59;8.15;50.90
74416;SHT31;62850;42.428;25.618;2023-02-01T13:06:34;8.21;51.00
74416;SHT31;62850;42.428;25.618;2023-02-01T13:12:03;8.34;51.16
74416;SHT31;62850;42.428;25.618;2023-02-01T13:14:46;8.39;50.43
74416;SHT31;62850;42.428;25.618;2023-02-01T13:22:27;8.44;50.46
74416;SHT31;62850;42.428;25.618;2023-02-01T13:24:58;8.41;50.02
74416;SHT31;62850;42.428;25.618;2023-02-01T13:27:28;8.48;50.93
74416;SHT31;62850;42.428;25.618;2023-02-01T13:40:45;8.56;48.18
74416;SHT31;62850;42.428;25.618;2023-02-01T13:43:21;8.60;46.28
74416;SHT31;62850;42.428;25.618;2023-02-01T13:45:51;8.58;46.90
74416;SHT31;62850;42.428;25.618;2023-02-01T13:48:21;8.58;46.77
74416;SHT31;62850;42.428;25.618;2023-02-01T13:50:52;8.58;47.35
74416;SHT31;62850;42.428;25.618;2023-02-01T13:53:24;8.53;47.45
74416;SHT31;62850;42.428;25.618;2023-02-01T13:58:33;8.63;47.76
74416;SHT31;62850;42.428;25.618;2023-02-01T14:03:45;8.58;47.45
74416;SHT31;62850;42.428;25.618;2023-02-01T14:19:24;8.41;50.00
74416;SHT31;62850;42.428;25.618;2023-02-01T14:21:52;8.35;49.94
74416;SHT31;62850;42.428;25.618;2023-02-01T14:26:53;8.31;50.79
74416;SHT31;62850;42.428;25.618;2023-02-01T14:29:40;8.37;51.13
74416;SHT31;62850;42.428;25.618;2023-02-01T14:32:17;8.38;51.03
74416;SHT31;62850;42.428;25.618;2023-02-01T14:37:32;8.27;50.69
74416;SHT31;62850;42.428;25.618;2023-02-01T14:56:05;7.60;56.28
74416;SHT31;62850;42.428;25.618;2023-02-01T14:58:41;7.29;57.27
74416;SHT31;62850;42.428;25.618;2023-02-01T15:06:43;6.76;59.85
74416;SHT31;62850;42.428;25.618;2023-02-01T15:09:11;6.71;59.57
74416;SHT31;62850;42.428;25.618;2023-02-01T15:17:30;6.74;60.66
74416;SHT31;62850;42.428;25.618;2023-02-01T15:20:01;6.80;60.82
74416;SHT31;62850;42.428;25.618;2023-02-01T15:22:29;6.71;61.35
74416;SHT31;62850;42.428;25.618;2023-02-01T15:24:58;6.66;61.26
74416;SHT31;62850;42.428;25.618;2023-02-01T15:27:24;6.58;61.46
74416;SHT31;62850;42.428;25.618;2023-02-01T15:29:50;6.56;61.75
74416;SHT31;62850;42.428;25.618;2023-02-01T15:32:30;6.47;61.97
74416;SHT31;62850;42.428;25.618;2023-02-01T15:34:59;6.40;61.06
74416;SHT31;62850;42.428;25.618;2023-02-01T15:37:26;6.37;61.15
74416;SHT31;62850;42.428;25.618;2023-02-01T15:40:18;6.33;60.48
74416;SHT31;62850;42.428;25.618;2023-02-01T15:43:02;6.30;57.98
74416;SHT31;62850;42.428;25.618;2023-02-01T15:45:29;6.46;55.40
74416;SHT31;62850;42.428;25.618;2023-02-01T15:47:58;6.61;56.31
74416;SHT31;62850;42.428;25.618;2023-02-01T15:50:26;6.77;53.76
74416;SHT31;62850;42.428;25.618;2023-02-01T15:52:54;6.92;53.26
74416;SHT31;62850;42.428;25.618;2023-02-01T15:55:39;6.87;55.05
74416;SHT31;62850;42.428;25.618;2023-02-01T15:58:13;6.80;57.23
74416;SHT31;62850;42.428;25.618;2023-02-01T16:00:45;6.63;57.77
74416;SHT31;62850;42.428;25.618;2023-02-01T16:03:33;6.53;58.07
74416;SHT31;62850;42.428;25.618;2023-02-01T16:09:13;6.54;56.10
74416;SHT31;62850;42.428;25.618;2023-02-01T16:11:48;6.53;55.98
74416;SHT31;62850;42.428;25.618;2023-02-01T16:14:14;6.44;55.69
74416;SHT31;62850;42.428;25.618;2023-02-01T16:16:40;6.37;56.19
74416;SHT31;62850;42.428;25.618;2023-02-01T16:19:06;6.43;56.23
74416;SHT31;62850;42.428;25.618;2023-02-01T16:21:31;6.46;55.73
74416;SHT31;62850;42.428;25.618;2023-02-01T16:23:57;6.46;55.62
74416;SHT31;62850;42.428;25.618;2023-02-01T16:26:24;6.47;55.68
74416;SHT31;62850;42.428;25.618;2023-02-01T16:28:50;6.42;55.24
74416;SHT31;62850;42.428;25.618;2023-02-01T16:31:17;6.34;55.03
74416;SHT31;62850;42.428;25.618;2023-02-01T16:33:48;6.36;55.51
74416;SHT31;62850;42.428;25.618;2023-02-01T16:36:14;6.30;55.44
74416;SHT31;62850;42.428;25.618;2023-02-01T16:38:41;6.23;55.39
74416;SHT31;62850;42.428;25.618;2023-02-01T16:41:06;6.22;56.14
74416;SHT31;62850;42.428;25.618;2023-02-01T16:43:34;6.32;54.54
74416;SHT31;62850;42.428;25.618;2023-02-01T16:46:00;6.32;54.38
74416;SHT31;62850;42.428;25.618;2023-02-01T16:48:33;6.37;54.36
74416;SHT31;62850;42.428;25.618;2023-02-01T16:51:08;6.40;54.90
74416;SHT31;62850;42.428;25.618;2023-02-01T16:53:37;6.34;55.38
74416;SHT31;62850;42.428;25.618;2023-02-01T16:56:18;6.22;54.59
74416;SHT31;62850;42.428;25.618;2023-02-01T16:58:44;6.22;54.83
74416;SHT31;62850;42.428;25.618;2023-02-01T17:01:14;6.22;55.30
74416;SHT31;62850;42.428;25.618;2023-02-01T17:03:40;6.12;55.00
74416;SHT31;62850;42.428;25.618;2023-02-01T17:06:08;6.08;54.39
74416;SHT31;62850;42.428;25.618;2023-02-01T17:08:36;5.99;55.55
74416;SHT31;62850;42.428;25.618;2023-02-01T17:11:04;5.94;55.84
74416;SHT31;62850;42.428;25.618;2023-02-01T17:13:30;5.97;56.20
74416;SHT31;62850;42.428;25.618;2023-02-01T17:15:59;5.98;55.71
74416;SHT31;62850;42.428;25.618;2023-02-01T17:18:27;5.99;55.74
74416;SHT31;62850;42.428;25.618;2023-02-01T17:20:58;6.01;55.34
74416;SHT31;62850;42.428;25.618;2023-02-01T17:23:25;6.06;55.45
74416;SHT31;62850;42.428;25.618;2023-02-01T17:25:51;6.09;56.62
74416;SHT31;62850;42.428;25.618;2023-02-01T17:28:18;6.01;57.75
74416;SHT31;62850;42.428;25.618;2023-02-01T17:30:43;5.72;58.77
74416;SHT31;62850;42.428;25.618;2023-02-01T17:33:28;5.54;57.82
74416;SHT31;62850;42.428;25.618;2023-02-01T17:35:55;5.55;58.67
74416;SHT31;62850;42.428;25.618;2023-02-01T17:38:22;5.43;59.40
74416;SHT31;62850;42.428;25.618;2023-02-01T17:40:47;5.27;58.47
74416;SHT31;62850;42.428;25.618;2023-02-01T17:43:15;5.24;56.70
74416;SHT31;62850;42.428;25.618;2023-02-01T17:45:48;5.43;56.52
74416;SHT31;62850;42.428;25.618;2023-02-01T17:48:17;5.24;57.69
74416;SHT31;62850;42.428;25.618;2023-02-01T17:50:45;5.23;58.57
74416;SHT31;62850;42.428;25.618;2023-02-01T17:53:11;5.24;58.54
74416;SHT31;62850;42.428;25.618;2023-02-01T17:55:42;5.23;58.42
74416;SHT31;62850;42.428;25.618;2023-02-01T17:58:10;5.10;57.88
74416;SHT31;62850;42.428;25.618;2023-02-01T18:00:37;5.13;57.42
74416;SHT31;62850;42.428;25.618;2023-02-01T18:03:03;5.26;56.93
74416;SHT31;62850;42.428;25.618;2023-02-01T18:05:37;5.19;57.61
74416;SHT31;62850;42.428;25.618;2023-02-01T18:08:04;5.19;58.90
74416;SHT31;62850;42.428;25.618;2023-02-01T18:10:29;5.16;59.51
74416;SHT31;62850;42.428;25.618;2023-02-01T18:12:55;5.15;57.72
74416;SHT31;62850;42.428;25.618;2023-02-01T18:15:26;5.12;57.86
74416;SHT31;62850;42.428;25.618;2023-02-01T18:17:52;5.08;58.39
74416;SHT31;62850;42.428;25.618;2023-02-01T18:20:22;4.97;58.26
74416;SHT31;62850;42.428;25.618;2023-02-01T18:23:00;4.92;56.93
74416;SHT31;62850;42.428;25.618;2023-02-01T18:25:28;4.96;57.23
74416;SHT31;62850;42.428;25.618;2023-02-01T18:28:03;4.93;57.28
74416;SHT31;62850;42.428;25.618;2023-02-01T18:30:30;5.00;56.80
74416;SHT31;62850;42.428;25.618;2023-02-01T18:32:57;5.08;56.56
74416;SHT31;62850;42.428;25.618;2023-02-01T18:35:28;4.97;57.35
74416;SHT31;62850;42.428;25.618;2023-02-01T18:37:54;4.86;57.77
74416;SHT31;62850;42.428;25.618;2023-02-01T18:40:24;4.95;58.31
74416;SHT31;62850;42.428;25.618;2023-02-01T18:42:50;4.92;56.66
74416;SHT31;62850;42.428;25.618;2023-02-01T18:47:46;5.09;56.91
74416;SHT31;62850;42.428;25.618;2023-02-01T18:50:15;5.15;57.89